createdAt,value
2022-08-24T00:05:12.727Z,1.70
2022-08-24T00:15:17.174Z,1.52
2022-08-24T00:25:20.685Z,1.75
2022-08-24T00:35:24.508Z,1.90
2022-08-24T00:45:27.038Z,2.00
2022-08-24T00:55:34.391Z,2.35
2022-08-24T01:05:38.533Z,2.10
2022-08-24T01:15:45.957Z,2.47
2022-08-24T01:25:48.457Z,2.00
2022-08-24T01:35:51.125Z,1.98
2022-08-24T01:45:54.445Z,2.08
2022-08-24T01:55:56.918Z,2.22
2022-08-24T02:05:59.824Z,2.28
2022-08-24T02:16:02.562Z,2.37
2022-08-24T02:26:07.319Z,2.70
2022-08-24T02:36:25.707Z,2.33
2022-08-24T02:46:31.181Z,2.40
2022-08-24T02:56:33.765Z,2.70
2022-08-24T03:06:36.411Z,1.80
2022-08-24T03:16:38.983Z,2.50
2022-08-24T03:26:44.097Z,2.63
2022-08-24T03:36:46.870Z,2.10
2022-08-24T03:46:49.501Z,2.37
2022-08-24T03:56:51.900Z,1.90
2022-08-24T04:06:54.218Z,2.17
2022-08-24T04:16:57.910Z,2.12
2022-08-24T04:27:00.545Z,2.30
2022-08-24T04:37:03.037Z,2.90
2022-08-24T04:47:06.053Z,2.60
2022-08-24T04:57:08.659Z,2.37
2022-08-24T05:07:11.134Z,2.17
2022-08-24T05:17:14.080Z,2.27
2022-08-24T05:27:18.993Z,2.70
2022-08-24T05:37:23.110Z,2.70
2022-08-24T05:57:42.798Z,2.20
2022-08-24T06:07:47.313Z,2.70
2022-08-24T06:17:51.680Z,2.42
2022-08-24T06:27:55.696Z,2.60
2022-08-24T06:37:59.743Z,2.25
2022-08-24T06:58:06.532Z,2.25
2022-08-24T07:08:11.388Z,2.60
2022-08-24T07:18:16.639Z,2.37
2022-08-24T07:28:27.697Z,2.60
2022-08-24T07:38:38.645Z,2.62
2022-08-24T07:48:41.891Z,3.20
2022-08-24T07:58:48.370Z,3.25
2022-08-24T08:08:55.327Z,2.70
2022-08-24T08:19:21.099Z,2.58
2022-08-24T08:29:27.792Z,2.33
2022-08-24T08:39:32.544Z,2.45
2022-08-24T08:50:08.780Z,2.50
2022-08-24T09:00:53.347Z,2.40
2022-08-24T09:11:33.846Z,2.20
2022-08-24T09:22:11.073Z,2.12
2022-08-24T09:32:42.314Z,2.30
2022-08-24T09:43:40.126Z,2.03
2022-08-24T09:54:25.740Z,2.25
2022-08-24T10:04:55.415Z,2.03
2022-08-24T10:15:16.248Z,2.10
2022-08-24T10:25:47.110Z,1.50
2022-08-24T10:36:22.205Z,1.30
2022-08-24T10:47:13.710Z,1.40
2022-08-24T10:57:19.915Z,1.00
2022-08-24T11:07:41.239Z,1.30
2022-08-24T11:18:12.672Z,1.12
2022-08-24T11:29:04.885Z,1.27
2022-08-24T11:39:17.937Z,1.20
2022-08-24T11:49:43.393Z,1.48
2022-08-24T12:12:13.259Z,1.20
2022-08-24T12:22:40.049Z,1.00
2022-08-24T12:32:59.236Z,1.30
2022-08-24T12:43:16.111Z,1.73
2022-08-24T12:54:27.292Z,1.70
2022-08-24T13:15:51.651Z,1.02
2022-08-24T13:26:19.636Z,0.80
2022-08-24T13:36:47.423Z,1.00
2022-08-24T13:47:07.264Z,1.10
2022-08-24T13:57:35.733Z,0.93
2022-08-24T14:07:56.511Z,1.00
2022-08-24T14:18:29.158Z,1.00
2022-08-24T14:28:48.300Z,0.65
2022-08-24T14:39:50.515Z,1.00
2022-08-24T14:50:12.831Z,1.00
2022-08-24T15:00:25.211Z,1.00
2022-08-24T15:10:56.709Z,0.73
2022-08-24T15:21:21.123Z,0.85
2022-08-24T15:31:29.038Z,0.65
2022-08-24T15:41:38.656Z,0.80
2022-08-24T15:51:53.867Z,0.50
2022-08-24T16:02:26.960Z,0.70
2022-08-24T16:12:32.579Z,0.70
2022-08-24T16:22:40.839Z,0.60
2022-08-24T16:32:55.614Z,0.40
2022-08-24T16:42:58.797Z,0.57
2022-08-24T16:53:01.839Z,0.62
2022-08-24T17:03:04.764Z,0.50
2022-08-24T17:13:08.512Z,0.50
2022-08-24T17:23:11.432Z,0.60
2022-08-24T17:33:14.402Z,0.60
2022-08-24T17:43:17.085Z,0.70
2022-08-24T17:53:19.857Z,0.70
2022-08-24T18:03:23.557Z,0.45
2022-08-24T18:13:27.869Z,0.55
2022-08-24T18:23:31.759Z,0.68
2022-08-24T18:33:35.264Z,0.70
2022-08-24T18:43:39.307Z,1.00
2022-08-24T18:53:42.589Z,0.95
2022-08-24T19:13:48.308Z,0.88
2022-08-24T19:23:51.612Z,0.85
2022-08-24T19:33:55.614Z,0.98
2022-08-24T19:44:27.571Z,1.17
2022-08-24T19:54:35.685Z,1.20
2022-08-24T20:04:39.649Z,1.30
2022-08-24T20:14:42.907Z,1.50
2022-08-24T20:24:46.162Z,1.20
2022-08-24T20:44:53.045Z,1.50
2022-08-24T20:54:57.277Z,1.33
2022-08-24T21:05:00.481Z,1.40
2022-08-24T21:15:04.478Z,1.60
2022-08-24T21:25:10.868Z,1.60
2022-08-24T21:35:15.314Z,1.58
2022-08-24T21:45:18.976Z,1.87
2022-08-24T21:55:23.211Z,1.65
2022-08-24T22:05:27.533Z,1.98
2022-08-24T22:15:34.344Z,2.15
2022-08-24T22:25:37.311Z,1.85
2022-08-24T22:35:45.128Z,2.13
2022-08-24T22:45:52.801Z,2.17
2022-08-24T22:55:55.363Z,2.10
2022-08-24T23:05:57.827Z,2.25
2022-08-24T23:16:01.767Z,2.12
2022-08-24T23:26:05.617Z,2.60
2022-08-24T23:36:11.281Z,2.20
2022-08-24T23:46:14.061Z,2.30
2022-08-24T23:56:25.729Z,2.15
